sensor_id;sensor_type;location;lat;lon;timestamp;P1;durP1;ratioP1;P2;durP2;ratioP2
2680;SDS011;1350;42.134;24.708;2023-06-04T00:01:43;9.83;;;6.40;;
2680;SDS011;1350;42.134;24.708;2023-06-04T00:04:10;10.70;;;6.23;;
2680;SDS011;1350;42.134;24.708;2023-06-04T00:06:37;9.20;;;6.00;;
2680;SDS011;1350;42.134;24.708;2023-06-04T00:09:04;13.53;;;6.77;;
2680;SDS011;1350;42.134;24.708;2023-06-04T00:11:31;13.50;;;6.00;;
2680;SDS011;1350;42.134;24.708;2023-06-04T00:14:00;10.40;;;5.17;;
2680;SDS011;1350;42.134;24.708;2023-06-04T00:16:27;13.60;;;6.10;;
2680;SDS011;1350;42.134;24.708;2023-06-04T00:18:53;10.07;;;5.63;;
2680;SDS011;1350;42.134;24.708;2023-06-04T00:21:20;8.70;;;5.63;;
2680;SDS011;1350;42.134;24.708;2023-06-04T00:23:47;9.00;;;5.20;;
2680;SDS011;1350;42.134;24.708;2023-06-04T00:26:14;8.50;;;5.80;;
2680;SDS011;1350;42.134;24.708;2023-06-04T00:28:41;13.50;;;6.57;;
2680;SDS011;1350;42.134;24.708;2023-06-04T00:31:09;14.37;;;5.77;;
2680;SDS011;1350;42.134;24.708;2023-06-04T00:33:37;10.00;;;6.00;;
2680;SDS011;1350;42.134;24.708;2023-06-04T00:36:05;11.80;;;5.60;;
2680;SDS011;1350;42.134;24.708;2023-06-04T00:38:32;9.77;;;6.63;;
2680;SDS011;1350;42.134;24.708;2023-06-04T00:40:58;8.80;;;5.90;;
2680;SDS011;1350;42.134;24.708;2023-06-04T00:43:25;9.00;;;5.70;;
2680;SDS011;1350;42.134;24.708;2023-06-04T00:45:52;8.77;;;5.70;;
2680;SDS011;1350;42.134;24.708;2023-06-04T00:48:21;10.50;;;6.23;;
2680;SDS011;1350;42.134;24.708;2023-06-04T00:50:47;13.43;;;6.10;;
2680;SDS011;1350;42.134;24.708;2023-06-04T00:53:14;9.30;;;6.20;;
2680;SDS011;1350;42.134;24.708;2023-06-04T00:55:41;11.23;;;6.07;;
2680;SDS011;1350;42.134;24.708;2023-06-04T00:58:08;8.90;;;6.60;;
2680;SDS011;1350;42.134;24.708;2023-06-04T01:00:35;9.50;;;6.37;;
2680;SDS011;1350;42.134;24.708;2023-06-04T01:03:04;9.37;;;6.53;;
2680;SDS011;1350;42.134;24.708;2023-06-04T01:05:39;8.63;;;5.77;;
2680;SDS011;1350;42.134;24.708;2023-06-04T01:08:11;10.20;;;6.03;;
2680;SDS011;1350;42.134;24.708;2023-06-04T01:10:49;12.53;;;7.00;;
2680;SDS011;1350;42.134;24.708;2023-06-04T01:13:17;9.57;;;6.50;;
2680;SDS011;1350;42.134;24.708;2023-06-04T01:15:43;8.37;;;5.50;;
2680;SDS011;1350;42.134;24.708;2023-06-04T01:18:10;11.33;;;6.30;;
2680;SDS011;1350;42.134;24.708;2023-06-04T01:20:54;13.23;;;6.70;;
2680;SDS011;1350;42.134;24.708;2023-06-04T01:23:26;8.47;;;6.13;;
2680;SDS011;1350;42.134;24.708;2023-06-04T01:26:00;10.77;;;6.73;;
2680;SDS011;1350;42.134;24.708;2023-06-04T01:28:29;11.23;;;6.87;;
2680;SDS011;1350;42.134;24.708;2023-06-04T01:30:56;11.80;;;6.60;;
2680;SDS011;1350;42.134;24.708;2023-06-04T01:33:25;13.80;;;7.73;;
2680;SDS011;1350;42.134;24.708;2023-06-04T01:35:52;11.03;;;6.90;;
2680;SDS011;1350;42.134;24.708;2023-06-04T01:38:21;12.53;;;6.87;;
2680;SDS011;1350;42.134;24.708;2023-06-04T01:40:47;8.50;;;6.50;;
2680;SDS011;1350;42.134;24.708;2023-06-04T01:43:15;9.70;;;6.33;;
2680;SDS011;1350;42.134;24.708;2023-06-04T01:45:42;10.73;;;7.27;;
2680;SDS011;1350;42.134;24.708;2023-06-04T01:48:09;10.63;;;7.00;;
2680;SDS011;1350;42.134;24.708;2023-06-04T01:50:36;9.90;;;6.30;;
2680;SDS011;1350;42.134;24.708;2023-06-04T01:53:04;10.40;;;6.47;;
2680;SDS011;1350;42.134;24.708;2023-06-04T01:55:31;10.33;;;7.10;;
2680;SDS011;1350;42.134;24.708;2023-06-04T01:57:58;11.47;;;7.97;;
2680;SDS011;1350;42.134;24.708;2023-06-04T02:00:25;9.53;;;6.00;;
2680;SDS011;1350;42.134;24.708;2023-06-04T02:02:52;12.60;;;6.20;;
2680;SDS011;1350;42.134;24.708;2023-06-04T02:05:21;11.40;;;6.30;;
2680;SDS011;1350;42.134;24.708;2023-06-04T02:07:48;10.43;;;6.20;;
2680;SDS011;1350;42.134;24.708;2023-06-04T02:10:16;9.80;;;6.70;;
2680;SDS011;1350;42.134;24.708;2023-06-04T02:12:52;8.50;;;6.10;;
2680;SDS011;1350;42.134;24.708;2023-06-04T02:15:21;9.50;;;7.47;;
2680;SDS011;1350;42.134;24.708;2023-06-04T02:17:49;12.13;;;6.60;;
2680;SDS011;1350;42.134;24.708;2023-06-04T02:20:16;11.67;;;6.33;;
2680;SDS011;1350;42.134;24.708;2023-06-04T02:22:43;9.90;;;6.83;;
2680;SDS011;1350;42.134;24.708;2023-06-04T02:25:10;10.60;;;6.60;;
2680;SDS011;1350;42.134;24.708;2023-06-04T02:27:38;11.10;;;6.73;;
2680;SDS011;1350;42.134;24.708;2023-06-04T02:30:05;11.47;;;6.83;;
2680;SDS011;1350;42.134;24.708;2023-06-04T02:32:33;12.20;;;6.90;;
2680;SDS011;1350;42.134;24.708;2023-06-04T02:35:01;9.80;;;6.33;;
2680;SDS011;1350;42.134;24.708;2023-06-04T02:37:28;9.57;;;6.00;;
2680;SDS011;1350;42.134;24.708;2023-06-04T02:39:55;9.83;;;6.40;;
2680;SDS011;1350;42.134;24.708;2023-06-04T02:42:22;16.90;;;7.77;;
2680;SDS011;1350;42.134;24.708;2023-06-04T02:44:50;11.90;;;6.60;;
2680;SDS011;1350;42.134;24.708;2023-06-04T02:47:16;10.00;;;5.07;;
2680;SDS011;1350;42.134;24.708;2023-06-04T02:49:44;8.23;;;6.30;;
2680;SDS011;1350;42.134;24.708;2023-06-04T02:52:11;9.13;;;6.73;;
2680;SDS011;1350;42.134;24.708;2023-06-04T02:54:38;11.47;;;6.50;;
2680;SDS011;1350;42.134;24.708;2023-06-04T02:57:05;8.83;;;6.70;;
2680;SDS011;1350;42.134;24.708;2023-06-04T02:59:33;10.60;;;6.50;;
2680;SDS011;1350;42.134;24.708;2023-06-04T03:02:01;10.70;;;7.33;;
2680;SDS011;1350;42.134;24.708;2023-06-04T03:04:28;12.30;;;7.30;;
2680;SDS011;1350;42.134;24.708;2023-06-04T03:06:59;12.97;;;7.13;;
2680;SDS011;1350;42.134;24.708;2023-06-04T03:09:27;10.10;;;7.03;;
2680;SDS011;1350;42.134;24.708;2023-06-04T03:11:56;8.40;;;7.03;;
2680;SDS011;1350;42.134;24.708;2023-06-04T03:14:26;12.17;;;7.50;;
2680;SDS011;1350;42.134;24.708;2023-06-04T03:16:57;9.70;;;7.50;;
2680;SDS011;1350;42.134;24.708;2023-06-04T03:19:27;12.63;;;8.50;;
2680;SDS011;1350;42.134;24.708;2023-06-04T03:21:54;9.03;;;6.93;;
2680;SDS011;1350;42.134;24.708;2023-06-04T03:24:21;12.20;;;8.53;;
2680;SDS011;1350;42.134;24.708;2023-06-04T03:26:48;10.87;;;7.47;;
2680;SDS011;1350;42.134;24.708;2023-06-04T03:29:15;12.47;;;7.13;;
2680;SDS011;1350;42.134;24.708;2023-06-04T03:31:43;10.43;;;6.70;;
2680;SDS011;1350;42.134;24.708;2023-06-04T03:34:10;12.70;;;7.30;;
2680;SDS011;1350;42.134;24.708;2023-06-04T03:36:39;11.60;;;7.80;;
2680;SDS011;1350;42.134;24.708;2023-06-04T03:39:05;9.90;;;7.30;;
2680;SDS011;1350;42.134;24.708;2023-06-04T03:41:32;11.13;;;7.67;;
2680;SDS011;1350;42.134;24.708;2023-06-04T03:43:59;9.30;;;7.00;;
2680;SDS011;1350;42.134;24.708;2023-06-04T03:46:26;11.83;;;8.50;;
2680;SDS011;1350;42.134;24.708;2023-06-04T03:48:56;13.83;;;8.77;;
2680;SDS011;1350;42.134;24.708;2023-06-04T03:51:23;12.40;;;8.37;;
2680;SDS011;1350;42.134;24.708;2023-06-04T03:53:51;11.67;;;8.27;;
2680;SDS011;1350;42.134;24.708;2023-06-04T03:56:18;13.40;;;9.17;;
2680;SDS011;1350;42.134;24.708;2023-06-04T03:58:45;14.30;;;9.33;;
2680;SDS011;1350;42.134;24.708;2023-06-04T04:01:11;13.13;;;9.03;;
2680;SDS011;1350;42.134;24.708;2023-06-04T04:03:38;11.60;;;8.67;;
2680;SDS011;1350;42.134;24.708;2023-06-04T04:06:05;11.70;;;8.40;;
2680;SDS011;1350;42.134;24.708;2023-06-04T04:08:32;11.70;;;9.63;;
2680;SDS011;1350;42.134;24.708;2023-06-04T04:11:00;11.63;;;8.50;;
2680;SDS011;1350;42.134;24.708;2023-06-04T04:13:27;12.17;;;9.33;;
2680;SDS011;1350;42.134;24.708;2023-06-04T04:15:54;11.43;;;8.40;;
2680;SDS011;1350;42.134;24.708;2023-06-04T04:18:21;13.03;;;9.50;;
2680;SDS011;1350;42.134;24.708;2023-06-04T04:20:48;12.83;;;9.03;;
2680;SDS011;1350;42.134;24.708;2023-06-04T04:23:15;14.73;;;8.70;;
2680;SDS011;1350;42.134;24.708;2023-06-04T04:25:42;18.67;;;8.57;;
2680;SDS011;1350;42.134;24.708;2023-06-04T04:28:11;19.03;;;10.87;;
2680;SDS011;1350;42.134;24.708;2023-06-04T04:30:38;20.90;;;10.60;;
2680;SDS011;1350;42.134;24.708;2023-06-04T04:33:06;12.33;;;8.10;;
2680;SDS011;1350;42.134;24.708;2023-06-04T04:35:33;13.97;;;10.80;;
2680;SDS011;1350;42.134;24.708;2023-06-04T04:38:00;11.40;;;8.97;;
2680;SDS011;1350;42.134;24.708;2023-06-04T04:40:28;13.20;;;8.97;;
2680;SDS011;1350;42.134;24.708;2023-06-04T04:42:55;13.17;;;9.30;;
2680;SDS011;1350;42.134;24.708;2023-06-04T04:45:23;13.33;;;8.83;;
2680;SDS011;1350;42.134;24.708;2023-06-04T04:47:50;11.73;;;8.53;;
2680;SDS011;1350;42.134;24.708;2023-06-04T04:50:16;15.30;;;8.90;;
2680;SDS011;1350;42.134;24.708;2023-06-04T04:52:43;13.20;;;10.00;;
2680;SDS011;1350;42.134;24.708;2023-06-04T04:55:10;11.70;;;9.13;;
2680;SDS011;1350;42.134;24.708;2023-06-04T04:57:38;14.73;;;9.50;;
2680;SDS011;1350;42.134;24.708;2023-06-04T05:00:05;15.00;;;9.27;;
2680;SDS011;1350;42.134;24.708;2023-06-04T05:02:35;13.97;;;9.23;;
2680;SDS011;1350;42.134;24.708;2023-06-04T05:05:02;13.63;;;9.70;;
2680;SDS011;1350;42.134;24.708;2023-06-04T05:07:29;12.30;;;9.60;;
2680;SDS011;1350;42.134;24.708;2023-06-04T05:09:56;14.30;;;10.47;;
2680;SDS011;1350;42.134;24.708;2023-06-04T05:12:24;13.50;;;8.83;;
2680;SDS011;1350;42.134;24.708;2023-06-04T05:14:51;15.37;;;10.80;;
2680;SDS011;1350;42.134;24.708;2023-06-04T05:17:18;12.70;;;9.77;;
2680;SDS011;1350;42.134;24.708;2023-06-04T05:19:56;10.60;;;8.50;;
2680;SDS011;1350;42.134;24.708;2023-06-04T05:22:36;12.10;;;9.10;;
2680;SDS011;1350;42.134;24.708;2023-06-04T05:25:03;13.57;;;8.43;;
2680;SDS011;1350;42.134;24.708;2023-06-04T05:27:30;14.60;;;8.60;;
2680;SDS011;1350;42.134;24.708;2023-06-04T05:29:57;14.00;;;8.60;;
2680;SDS011;1350;42.134;24.708;2023-06-04T05:32:26;13.53;;;9.60;;
2680;SDS011;1350;42.134;24.708;2023-06-04T05:34:53;13.30;;;9.60;;
2680;SDS011;1350;42.134;24.708;2023-06-04T05:37:23;19.03;;;9.93;;
2680;SDS011;1350;42.134;24.708;2023-06-04T05:39:52;24.50;;;10.47;;
2680;SDS011;1350;42.134;24.708;2023-06-04T05:42:19;10.90;;;8.97;;
2680;SDS011;1350;42.134;24.708;2023-06-04T05:44:46;15.37;;;9.60;;
2680;SDS011;1350;42.134;24.708;2023-06-04T05:47:13;15.60;;;10.10;;
2680;SDS011;1350;42.134;24.708;2023-06-04T05:49:41;14.17;;;10.70;;
2680;SDS011;1350;42.134;24.708;2023-06-04T05:52:08;13.90;;;9.30;;
2680;SDS011;1350;42.134;24.708;2023-06-04T05:54:36;12.10;;;8.63;;
2680;SDS011;1350;42.134;24.708;2023-06-04T05:57:03;16.97;;;9.63;;
2680;SDS011;1350;42.134;24.708;2023-06-04T05:59:30;17.37;;;10.50;;
2680;SDS011;1350;42.134;24.708;2023-06-04T06:01:57;12.33;;;8.97;;
2680;SDS011;1350;42.134;24.708;2023-06-04T06:04:24;15.00;;;10.80;;
2680;SDS011;1350;42.134;24.708;2023-06-04T06:06:50;14.80;;;9.80;;
2680;SDS011;1350;42.134;24.708;2023-06-04T06:09:17;12.37;;;10.10;;
2680;SDS011;1350;42.134;24.708;2023-06-04T06:11:45;12.40;;;9.23;;
2680;SDS011;1350;42.134;24.708;2023-06-04T06:14:12;12.77;;;9.53;;
2680;SDS011;1350;42.134;24.708;2023-06-04T06:16:39;13.53;;;9.53;;
2680;SDS011;1350;42.134;24.708;2023-06-04T06:19:05;21.00;;;10.43;;
2680;SDS011;1350;42.134;24.708;2023-06-04T06:21:32;17.80;;;8.90;;
2680;SDS011;1350;42.134;24.708;2023-06-04T06:23:59;12.53;;;9.13;;
2680;SDS011;1350;42.134;24.708;2023-06-04T06:26:26;11.70;;;9.07;;
2680;SDS011;1350;42.134;24.708;2023-06-04T06:28:54;13.43;;;8.87;;
2680;SDS011;1350;42.134;24.708;2023-06-04T06:31:21;14.00;;;8.50;;
2680;SDS011;1350;42.134;24.708;2023-06-04T06:33:47;14.37;;;10.47;;
2680;SDS011;1350;42.134;24.708;2023-06-04T06:36:14;10.33;;;8.80;;
2680;SDS011;1350;42.134;24.708;2023-06-04T06:38:43;17.90;;;9.70;;
2680;SDS011;1350;42.134;24.708;2023-06-04T06:41:11;14.50;;;10.17;;
2680;SDS011;1350;42.134;24.708;2023-06-04T06:43:38;15.73;;;8.40;;
2680;SDS011;1350;42.134;24.708;2023-06-04T06:46:06;10.77;;;8.00;;
2680;SDS011;1350;42.134;24.708;2023-06-04T06:48:33;10.27;;;7.80;;
2680;SDS011;1350;42.134;24.708;2023-06-04T06:50:59;9.23;;;7.97;;
2680;SDS011;1350;42.134;24.708;2023-06-04T06:53:26;11.03;;;8.47;;
2680;SDS011;1350;42.134;24.708;2023-06-04T06:55:53;13.00;;;8.60;;
2680;SDS011;1350;42.134;24.708;2023-06-04T06:58:20;11.27;;;8.80;;
2680;SDS011;1350;42.134;24.708;2023-06-04T07:00:48;10.90;;;8.87;;
2680;SDS011;1350;42.134;24.708;2023-06-04T07:03:16;11.60;;;8.47;;
2680;SDS011;1350;42.134;24.708;2023-06-04T07:05:43;9.77;;;8.57;;
2680;SDS011;1350;42.134;24.708;2023-06-04T07:08:09;12.53;;;9.60;;
2680;SDS011;1350;42.134;24.708;2023-06-04T07:10:36;10.87;;;9.07;;
2680;SDS011;1350;42.134;24.708;2023-06-04T07:13:03;10.00;;;8.07;;
2680;SDS011;1350;42.134;24.708;2023-06-04T07:15:30;12.60;;;8.00;;
2680;SDS011;1350;42.134;24.708;2023-06-04T07:17:56;13.20;;;8.17;;
2680;SDS011;1350;42.134;24.708;2023-06-04T07:20:24;14.00;;;9.10;;
2680;SDS011;1350;42.134;24.708;2023-06-04T07:22:51;18.23;;;10.07;;
2680;SDS011;1350;42.134;24.708;2023-06-04T07:25:19;9.80;;;8.27;;
2680;SDS011;1350;42.134;24.708;2023-06-04T07:27:48;13.87;;;8.40;;
2680;SDS011;1350;42.134;24.708;2023-06-04T07:30:15;10.23;;;8.40;;
2680;SDS011;1350;42.134;24.708;2023-06-04T07:32:45;14.97;;;10.50;;
2680;SDS011;1350;42.134;24.708;2023-06-04T07:35:12;14.63;;;9.73;;
2680;SDS011;1350;42.134;24.708;2023-06-04T07:37:41;14.47;;;10.20;;
2680;SDS011;1350;42.134;24.708;2023-06-04T07:40:10;14.27;;;10.20;;
2680;SDS011;1350;42.134;24.708;2023-06-04T07:42:37;16.10;;;10.87;;
2680;SDS011;1350;42.134;24.708;2023-06-04T07:45:04;12.50;;;9.37;;
2680;SDS011;1350;42.134;24.708;2023-06-04T07:47:32;14.77;;;11.00;;
2680;SDS011;1350;42.134;24.708;2023-06-04T07:49:59;13.67;;;9.50;;
2680;SDS011;1350;42.134;24.708;2023-06-04T07:52:26;15.47;;;10.20;;
2680;SDS011;1350;42.134;24.708;2023-06-04T07:54:54;17.63;;;9.50;;
2680;SDS011;1350;42.134;24.708;2023-06-04T07:57:21;13.60;;;9.10;;
2680;SDS011;1350;42.134;24.708;2023-06-04T07:59:49;12.50;;;8.90;;
2680;SDS011;1350;42.134;24.708;2023-06-04T08:02:16;11.40;;;9.67;;
2680;SDS011;1350;42.134;24.708;2023-06-04T08:04:43;14.60;;;9.40;;
2680;SDS011;1350;42.134;24.708;2023-06-04T08:07:11;20.40;;;9.90;;
2680;SDS011;1350;42.134;24.708;2023-06-04T08:09:38;17.83;;;9.90;;
2680;SDS011;1350;42.134;24.708;2023-06-04T08:12:06;12.50;;;9.30;;
2680;SDS011;1350;42.134;24.708;2023-06-04T08:14:33;15.10;;;8.33;;
2680;SDS011;1350;42.134;24.708;2023-06-04T08:17:00;13.10;;;10.63;;
2680;SDS011;1350;42.134;24.708;2023-06-04T08:19:27;12.67;;;10.07;;
2680;SDS011;1350;42.134;24.708;2023-06-04T08:21:53;14.20;;;10.67;;
2680;SDS011;1350;42.134;24.708;2023-06-04T08:24:20;20.10;;;10.97;;
2680;SDS011;1350;42.134;24.708;2023-06-04T08:26:47;12.83;;;9.40;;
2680;SDS011;1350;42.134;24.708;2023-06-04T08:29:16;11.33;;;9.87;;
2680;SDS011;1350;42.134;24.708;2023-06-04T08:31:43;11.20;;;8.43;;
2680;SDS011;1350;42.134;24.708;2023-06-04T08:34:10;10.87;;;8.27;;
2680;SDS011;1350;42.134;24.708;2023-06-04T08:36:36;15.37;;;9.23;;
2680;SDS011;1350;42.134;24.708;2023-06-04T08:39:03;11.73;;;9.13;;
2680;SDS011;1350;42.134;24.708;2023-06-04T08:41:32;15.43;;;8.87;;
2680;SDS011;1350;42.134;24.708;2023-06-04T08:44:04;13.23;;;8.27;;
2680;SDS011;1350;42.134;24.708;2023-06-04T08:46:33;13.70;;;9.00;;
2680;SDS011;1350;42.134;24.708;2023-06-04T08:49:04;10.60;;;7.33;;
2680;SDS011;1350;42.134;24.708;2023-06-04T08:51:32;11.70;;;7.83;;
2680;SDS011;1350;42.134;24.708;2023-06-04T08:54:02;13.10;;;7.87;;
2680;SDS011;1350;42.134;24.708;2023-06-04T08:56:30;12.73;;;6.87;;
2680;SDS011;1350;42.134;24.708;2023-06-04T08:58:59;9.67;;;7.60;;
2680;SDS011;1350;42.134;24.708;2023-06-04T09:01:28;11.53;;;6.77;;
2680;SDS011;1350;42.134;24.708;2023-06-04T09:03:56;10.00;;;7.63;;
2680;SDS011;1350;42.134;24.708;2023-06-04T09:06:25;9.77;;;7.03;;
2680;SDS011;1350;42.134;24.708;2023-06-04T09:08:54;10.30;;;7.60;;
2680;SDS011;1350;42.134;24.708;2023-06-04T09:11:23;9.87;;;6.63;;
2680;SDS011;1350;42.134;24.708;2023-06-04T09:13:53;8.87;;;5.97;;
2680;SDS011;1350;42.134;24.708;2023-06-04T09:16:26;14.63;;;7.70;;
2680;SDS011;1350;42.134;24.708;2023-06-04T09:18:59;11.30;;;7.43;;
2680;SDS011;1350;42.134;24.708;2023-06-04T09:21:27;9.07;;;6.50;;
2680;SDS011;1350;42.134;24.708;2023-06-04T09:23:54;10.73;;;7.50;;
2680;SDS011;1350;42.134;24.708;2023-06-04T09:26:20;13.20;;;7.30;;
2680;SDS011;1350;42.134;24.708;2023-06-04T09:28:47;12.77;;;7.00;;
2680;SDS011;1350;42.134;24.708;2023-06-04T09:31:15;12.23;;;7.67;;
2680;SDS011;1350;42.134;24.708;2023-06-04T09:33:43;12.43;;;7.63;;
2680;SDS011;1350;42.134;24.708;2023-06-04T09:36:12;12.83;;;7.43;;
2680;SDS011;1350;42.134;24.708;2023-06-04T09:38:39;13.87;;;8.97;;
2680;SDS011;1350;42.134;24.708;2023-06-04T09:41:10;13.13;;;10.27;;
2680;SDS011;1350;42.134;24.708;2023-06-04T09:43:37;17.17;;;8.77;;
2680;SDS011;1350;42.134;24.708;2023-06-04T09:46:08;12.83;;;9.03;;
2680;SDS011;1350;42.134;24.708;2023-06-04T09:48:36;11.57;;;8.60;;
2680;SDS011;1350;42.134;24.708;2023-06-04T09:51:07;21.63;;;15.07;;
2680;SDS011;1350;42.134;24.708;2023-06-04T09:53:36;24.07;;;10.43;;
2680;SDS011;1350;42.134;24.708;2023-06-04T09:56:03;14.30;;;9.47;;
2680;SDS011;1350;42.134;24.708;2023-06-04T09:58:31;17.90;;;9.33;;
2680;SDS011;1350;42.134;24.708;2023-06-04T10:00:59;19.10;;;14.10;;
2680;SDS011;1350;42.134;24.708;2023-06-04T10:03:29;15.67;;;8.80;;
2680;SDS011;1350;42.134;24.708;2023-06-04T10:05:58;10.60;;;8.53;;
2680;SDS011;1350;42.134;24.708;2023-06-04T10:08:26;10.33;;;6.73;;
2680;SDS011;1350;42.134;24.708;2023-06-04T10:10:58;11.77;;;7.50;;
2680;SDS011;1350;42.134;24.708;2023-06-04T10:13:27;11.47;;;8.00;;
2680;SDS011;1350;42.134;24.708;2023-06-04T10:15:56;10.53;;;7.37;;
2680;SDS011;1350;42.134;24.708;2023-06-04T10:18:24;13.10;;;9.20;;
2680;SDS011;1350;42.134;24.708;2023-06-04T10:20:53;10.50;;;7.90;;
2680;SDS011;1350;42.134;24.708;2023-06-04T10:23:22;11.27;;;7.63;;
2680;SDS011;1350;42.134;24.708;2023-06-04T10:25:49;9.37;;;6.77;;
2680;SDS011;1350;42.134;24.708;2023-06-04T10:28:19;12.50;;;8.07;;
2680;SDS011;1350;42.134;24.708;2023-06-04T10:30:46;10.40;;;7.50;;
2680;SDS011;1350;42.134;24.708;2023-06-04T10:33:15;16.53;;;8.90;;
2680;SDS011;1350;42.134;24.708;2023-06-04T10:35:45;9.10;;;6.57;;
2680;SDS011;1350;42.134;24.708;2023-06-04T10:38:12;12.17;;;7.53;;
2680;SDS011;1350;42.134;24.708;2023-06-04T10:40:41;11.10;;;6.90;;
2680;SDS011;1350;42.134;24.708;2023-06-04T10:43:10;8.90;;;6.20;;
2680;SDS011;1350;42.134;24.708;2023-06-04T10:45:39;10.43;;;5.70;;
2680;SDS011;1350;42.134;24.708;2023-06-04T10:48:07;10.53;;;6.07;;
2680;SDS011;1350;42.134;24.708;2023-06-04T10:50:35;12.77;;;7.37;;
2680;SDS011;1350;42.134;24.708;2023-06-04T10:53:14;11.23;;;6.97;;
2680;SDS011;1350;42.134;24.708;2023-06-04T10:55:43;13.13;;;7.70;;
2680;SDS011;1350;42.134;24.708;2023-06-04T10:58:10;8.97;;;5.53;;
2680;SDS011;1350;42.134;24.708;2023-06-04T11:00:38;9.43;;;6.13;;
2680;SDS011;1350;42.134;24.708;2023-06-04T11:03:07;10.17;;;5.73;;
2680;SDS011;1350;42.134;24.708;2023-06-04T11:05:36;9.80;;;5.57;;
2680;SDS011;1350;42.134;24.708;2023-06-04T11:08:03;9.57;;;5.40;;
2680;SDS011;1350;42.134;24.708;2023-06-04T11:10:31;11.23;;;7.27;;
2680;SDS011;1350;42.134;24.708;2023-06-04T11:13:00;14.00;;;7.60;;
2680;SDS011;1350;42.134;24.708;2023-06-04T11:15:27;9.73;;;7.87;;
2680;SDS011;1350;42.134;24.708;2023-06-04T11:18:05;13.33;;;9.77;;
2680;SDS011;1350;42.134;24.708;2023-06-04T11:20:32;11.43;;;8.70;;
2680;SDS011;1350;42.134;24.708;2023-06-04T11:22:59;11.10;;;8.63;;
2680;SDS011;1350;42.134;24.708;2023-06-04T11:25:28;10.00;;;7.37;;
2680;SDS011;1350;42.134;24.708;2023-06-04T11:27:56;10.33;;;7.33;;
2680;SDS011;1350;42.134;24.708;2023-06-04T11:30:23;10.17;;;6.50;;
2680;SDS011;1350;42.134;24.708;2023-06-04T11:32:50;11.60;;;7.97;;
2680;SDS011;1350;42.134;24.708;2023-06-04T11:35:27;14.50;;;8.73;;
2680;SDS011;1350;42.134;24.708;2023-06-04T11:37:55;12.93;;;8.47;;
2680;SDS011;1350;42.134;24.708;2023-06-04T11:40:23;9.63;;;7.13;;
2680;SDS011;1350;42.134;24.708;2023-06-04T11:42:52;12.07;;;9.17;;
2680;SDS011;1350;42.134;24.708;2023-06-04T11:45:19;11.13;;;8.67;;
2680;SDS011;1350;42.134;24.708;2023-06-04T11:47:51;12.40;;;7.73;;
2680;SDS011;1350;42.134;24.708;2023-06-04T11:50:18;9.73;;;8.03;;
2680;SDS011;1350;42.134;24.708;2023-06-04T11:52:47;11.20;;;8.43;;
2680;SDS011;1350;42.134;24.708;2023-06-04T11:55:14;16.20;;;9.10;;
2680;SDS011;1350;42.134;24.708;2023-06-04T11:57:42;12.80;;;8.67;;
2680;SDS011;1350;42.134;24.708;2023-06-04T12:00:10;12.80;;;8.50;;
2680;SDS011;1350;42.134;24.708;2023-06-04T12:02:38;11.80;;;7.87;;
2680;SDS011;1350;42.134;24.708;2023-06-04T12:05:16;10.13;;;8.30;;
2680;SDS011;1350;42.134;24.708;2023-06-04T12:07:44;9.97;;;7.70;;
2680;SDS011;1350;42.134;24.708;2023-06-04T12:10:13;12.33;;;8.20;;
2680;SDS011;1350;42.134;24.708;2023-06-04T12:12:40;9.73;;;6.57;;
2680;SDS011;1350;42.134;24.708;2023-06-04T12:15:07;11.17;;;7.33;;
2680;SDS011;1350;42.134;24.708;2023-06-04T12:17:35;9.93;;;6.70;;
2680;SDS011;1350;42.134;24.708;2023-06-04T12:20:02;11.50;;;7.30;;
2680;SDS011;1350;42.134;24.708;2023-06-04T12:22:30;10.33;;;7.20;;
2680;SDS011;1350;42.134;24.708;2023-06-04T12:24:57;12.20;;;7.40;;
2680;SDS011;1350;42.134;24.708;2023-06-04T12:27:29;11.77;;;7.80;;
2680;SDS011;1350;42.134;24.708;2023-06-04T12:29:57;12.07;;;9.47;;
2680;SDS011;1350;42.134;24.708;2023-06-04T12:32:24;10.00;;;7.17;;
2680;SDS011;1350;42.134;24.708;2023-06-04T12:34:52;12.53;;;9.77;;
2680;SDS011;1350;42.134;24.708;2023-06-04T12:37:19;11.13;;;7.93;;
2680;SDS011;1350;42.134;24.708;2023-06-04T12:39:46;12.00;;;8.40;;
2680;SDS011;1350;42.134;24.708;2023-06-04T12:42:13;11.73;;;7.20;;
2680;SDS011;1350;42.134;24.708;2023-06-04T12:44:41;10.80;;;7.50;;
2680;SDS011;1350;42.134;24.708;2023-06-04T12:47:08;15.17;;;9.77;;
2680;SDS011;1350;42.134;24.708;2023-06-04T12:49:35;12.00;;;7.87;;
2680;SDS011;1350;42.134;24.708;2023-06-04T12:52:02;10.03;;;7.33;;
2680;SDS011;1350;42.134;24.708;2023-06-04T12:54:29;13.37;;;8.40;;
2680;SDS011;1350;42.134;24.708;2023-06-04T12:56:56;9.93;;;8.37;;
2680;SDS011;1350;42.134;24.708;2023-06-04T12:59:23;9.37;;;7.30;;
2680;SDS011;1350;42.134;24.708;2023-06-04T13:01:52;11.50;;;8.20;;
2680;SDS011;1350;42.134;24.708;2023-06-04T13:04:19;16.83;;;8.70;;
2680;SDS011;1350;42.134;24.708;2023-06-04T13:06:48;10.43;;;9.10;;
2680;SDS011;1350;42.134;24.708;2023-06-04T13:09:17;10.70;;;8.13;;
2680;SDS011;1350;42.134;24.708;2023-06-04T13:11:45;12.27;;;8.10;;
2680;SDS011;1350;42.134;24.708;2023-06-04T13:14:12;10.53;;;7.90;;
2680;SDS011;1350;42.134;24.708;2023-06-04T13:16:39;15.63;;;9.20;;
2680;SDS011;1350;42.134;24.708;2023-06-04T13:19:07;11.80;;;8.50;;
2680;SDS011;1350;42.134;24.708;2023-06-04T13:21:35;11.87;;;9.27;;
2680;SDS011;1350;42.134;24.708;2023-06-04T13:24:01;11.90;;;9.17;;
2680;SDS011;1350;42.134;24.708;2023-06-04T13:26:28;10.00;;;9.00;;
2680;SDS011;1350;42.134;24.708;2023-06-04T13:28:55;13.13;;;8.37;;
2680;SDS011;1350;42.134;24.708;2023-06-04T13:31:22;12.33;;;8.40;;
2680;SDS011;1350;42.134;24.708;2023-06-04T13:33:48;10.00;;;8.17;;
2680;SDS011;1350;42.134;24.708;2023-06-04T13:36:16;12.63;;;8.37;;
2680;SDS011;1350;42.134;24.708;2023-06-04T13:38:43;11.00;;;8.30;;
2680;SDS011;1350;42.134;24.708;2023-06-04T13:41:10;17.40;;;9.40;;
2680;SDS011;1350;42.134;24.708;2023-06-04T13:43:38;8.90;;;7.30;;
2680;SDS011;1350;42.134;24.708;2023-06-04T13:46:04;12.13;;;7.60;;
2680;SDS011;1350;42.134;24.708;2023-06-04T13:48:31;15.00;;;9.50;;
2680;SDS011;1350;42.134;24.708;2023-06-04T13:50:58;15.03;;;9.30;;
2680;SDS011;1350;42.134;24.708;2023-06-04T13:53:26;12.47;;;8.83;;
2680;SDS011;1350;42.134;24.708;2023-06-04T13:55:53;13.77;;;8.37;;
2680;SDS011;1350;42.134;24.708;2023-06-04T13:58:23;11.57;;;8.33;;
2680;SDS011;1350;42.134;24.708;2023-06-04T14:00:50;10.97;;;8.70;;
2680;SDS011;1350;42.134;24.708;2023-06-04T14:03:17;17.33;;;13.30;;
2680;SDS011;1350;42.134;24.708;2023-06-04T14:05:43;16.17;;;10.10;;
2680;SDS011;1350;42.134;24.708;2023-06-04T14:08:10;16.07;;;13.27;;
2680;SDS011;1350;42.134;24.708;2023-06-04T14:10:39;10.70;;;8.10;;
2680;SDS011;1350;42.134;24.708;2023-06-04T14:13:07;12.50;;;9.33;;
2680;SDS011;1350;42.134;24.708;2023-06-04T14:15:34;12.10;;;7.47;;
2680;SDS011;1350;42.134;24.708;2023-06-04T14:18:01;11.03;;;7.93;;
2680;SDS011;1350;42.134;24.708;2023-06-04T14:20:28;10.80;;;7.30;;
2680;SDS011;1350;42.134;24.708;2023-06-04T14:22:55;14.60;;;8.37;;
2680;SDS011;1350;42.134;24.708;2023-06-04T14:25:22;12.13;;;8.00;;
2680;SDS011;1350;42.134;24.708;2023-06-04T14:27:50;10.37;;;8.10;;
2680;SDS011;1350;42.134;24.708;2023-06-04T14:30:16;16.40;;;9.03;;
2680;SDS011;1350;42.134;24.708;2023-06-04T14:32:43;9.73;;;8.00;;
2680;SDS011;1350;42.134;24.708;2023-06-04T14:35:10;11.60;;;8.80;;
2680;SDS011;1350;42.134;24.708;2023-06-04T14:37:37;11.43;;;8.00;;
2680;SDS011;1350;42.134;24.708;2023-06-04T14:40:04;9.73;;;8.23;;
2680;SDS011;1350;42.134;24.708;2023-06-04T14:42:32;27.20;;;9.80;;
2680;SDS011;1350;42.134;24.708;2023-06-04T14:45:00;13.83;;;8.90;;
2680;SDS011;1350;42.134;24.708;2023-06-04T14:47:28;11.93;;;9.47;;
2680;SDS011;1350;42.134;24.708;2023-06-04T14:49:55;12.43;;;9.03;;
2680;SDS011;1350;42.134;24.708;2023-06-04T14:52:22;10.03;;;8.00;;